Time;durP1;ratioP1;P1;durP2;ratioP2;P2;SDS_P1;SDS_P2;PMS_P1;PMS_P2;Temp;Humidity;BMP_temperature;BMP_pressure;BME280_temperature;BME280_humidity;BME280_pressure;Samples;Min_cycle;Max_cycle;Signal;HPM_P1;HPM_P2
2022/07/06 10:13:08;;;;;;;3.40;1.92;;;23.20;52.90;;;;;;5008278;27;20540;-77
2022/07/06 10:15:36;;;;;;;6.03;1.65;;;22.50;52.10;;;;;;5006915;28;20211;-77
2022/07/06 10:18:04;;;;;;;2.95;1.60;;;22.50;52.90;;;;;;5006325;28;20167;-77
2022/07/06 10:20:32;;;;;;;1.70;1.52;;;22.90;53.00;;;;;;5006341;28;20209;-77
2022/07/06 10:23:02;;;;;;;4.38;1.65;;;22.90;51.00;;;;;;5000086;28;20208;-77
2022/07/06 10:25:28;;;;;;;6.35;2.03;;;22.70;52.00;;;;;;5006312;28;20199;-77
2022/07/06 10:27:55;;;;;;;4.50;1.60;;;22.30;52.70;;;;;;5006254;28;20214;-77
2022/07/06 10:30:22;;;;;;;6.53;1.80;;;22.30;53.10;;;;;;5006636;28;20199;-77
2022/07/06 10:32:52;;;;;;;4.25;1.60;;;22.70;52.00;;;;;;5007264;28;20168;-77
2022/07/06 10:35:21;;;;;;;3.13;1.63;;;22.90;50.50;;;;;;5006122;28;20196;-77
2022/07/06 10:38:07;;;;;;;1.77;1.40;;;23.10;49.60;;;;;;5006395;28;20186;-77
2022/07/06 10:43:22;;;;;;;5.47;1.60;;;23.70;48.50;;;;;;5007612;28;20259;-76
2022/07/06 10:45:48;;;;;;;5.80;1.52;;;23.70;48.60;;;;;;4990049;28;20211;-76
2022/07/06 10:48:17;;;;;;;3.60;1.50;;;23.50;48.90;;;;;;5006313;28;20172;-77
2022/07/06 10:50:45;;;;;;;3.60;1.75;;;23.40;49.10;;;;;;5005666;28;20678;-77
2022/07/06 10:53:15;;;;;;;4.32;1.58;;;23.50;49.70;;;;;;5005777;28;20185;-77
2022/07/06 10:55:50;;;;;;;5.97;1.40;;;23.40;49.10;;;;;;5005813;28;20647;-77
2022/07/06 10:58:41;;;;;;;3.28;1.70;;;23.40;48.90;;;;;;5009268;28;20198;-77
2022/07/06 11:01:09;;;;;;;1.75;1.30;;;23.60;48.00;;;;;;5110282;28;20619;-77
2022/07/06 11:03:43;;;;;;;3.67;1.50;;;23.80;48.20;;;;;;5109108;28;20172;-77
2022/07/06 11:06:22;;;;;;;3.65;1.60;;;23.70;47.20;;;;;;5064744;28;20174;-77
2022/07/06 11:08:55;;;;;;;2.20;1.50;;;23.30;47.90;;;;;;5006775;28;20246;-77
2022/07/06 11:11:31;;;;;;;6.13;1.48;;;22.90;48.20;;;;;;5005490;28;20192;-77
2022/07/06 11:14:06;;;;;;;2.88;1.55;;;22.90;48.90;;;;;;5005409;28;20224;-77
2022/07/06 11:17:00;;;;;;;4.40;1.50;;;23.00;48.90;;;;;;5005497;28;20179;-77
2022/07/06 11:19:26;;;;;;;7.47;1.98;;;23.20;49.10;;;;;;5006017;28;20693;-77
2022/07/06 11:22:05;;;;;;;2.30;1.38;;;23.50;47.70;;;;;;5006664;28;20207;-77
2022/07/06 11:24:35;;;;;;;2.90;1.40;;;23.50;46.80;;;;;;4992293;28;20164;-77
2022/07/06 11:27:01;;;;;;;1.85;1.20;;;23.50;45.40;;;;;;4992645;28;20255;-77
2022/07/06 11:29:28;;;;;;;3.42;1.52;;;23.60;45.30;;;;;;4992228;28;20258;-78
2022/07/06 11:31:56;;;;;;;1.83;1.50;;;23.30;48.60;;;;;;4993194;28;20187;-77
2022/07/06 11:34:27;;;;;;;3.15;1.42;;;23.00;49.30;;;;;;4992587;28;20291;-77
2022/07/06 11:36:57;;;;;;;2.63;1.65;;;22.70;49.80;;;;;;4993666;28;20197;-77
2022/07/06 11:39:25;;;;;;;4.10;1.48;;;22.30;49.80;;;;;;5007140;28;20283;-77
2022/07/06 11:41:51;;;;;;;3.05;1.70;;;22.30;50.00;;;;;;5095932;28;20192;-77
2022/07/06 11:44:17;;;;;;;4.40;1.30;;;22.70;50.10;;;;;;5094953;28;20202;-77
2022/07/06 11:46:43;;;;;;;4.88;1.67;;;23.00;48.80;;;;;;5094745;28;20657;-77
2022/07/06 11:49:09;;;;;;;2.13;1.45;;;23.20;48.20;;;;;;5038679;28;20425;-77
2022/07/06 11:51:37;;;;;;;4.68;1.52;;;23.40;47.90;;;;;;4991689;28;20180;-77
2022/07/06 11:54:17;;;;;;;5.47;1.30;;;23.50;46.40;;;;;;4992992;28;20263;-77
2022/07/06 11:56:52;;;;;;;1.77;1.13;;;23.60;45.70;;;;;;4991970;28;20218;-77
2022/07/06 12:00:27;;;;;;;4.78;1.30;;;23.60;43.30;;;;;;4991833;28;20206;-77
2022/07/06 12:03:02;;;;;;;4.93;1.50;;;23.70;46.20;;;;;;4991783;28;20212;-77
2022/07/06 12:05:31;;;;;;;3.97;1.63;;;23.60;48.90;;;;;;4992303;28;20180;-77
2022/07/06 12:08:06;;;;;;;1.88;1.30;;;23.70;48.70;;;;;;4991762;28;20639;-77
2022/07/06 12:10:37;;;;;;;3.72;1.88;;;23.70;48.90;;;;;;4991625;28;20574;-77
2022/07/06 12:13:04;;;;;;;4.15;1.40;;;23.60;48.10;;;;;;4992799;28;20184;-77
2022/07/06 12:15:29;;;;;;;2.75;1.40;;;23.50;49.20;;;;;;4991947;28;20181;-77
2022/07/06 12:17:55;;;;;;;3.88;1.45;;;23.40;48.20;;;;;;4992420;28;20195;-77
2022/07/06 12:20:21;;;;;;;5.13;1.63;;;23.40;47.80;;;;;;4991860;28;20232;-77
2022/07/06 12:25:57;;;;;;;4.35;1.30;;;23.60;47.30;;;;;;4993094;28;20228;-77
2022/07/06 12:28:23;;;;;;;4.03;1.35;;;23.80;46.50;;;;;;4991693;28;20176;-77
2022/07/06 12:30:49;;;;;;;1.60;1.30;;;24.00;46.40;;;;;;4991256;28;20200;-77
2022/07/06 12:33:18;;;;;;;5.00;1.40;;;24.20;46.00;;;;;;4991406;28;20180;-77
2022/07/06 12:35:43;;;;;;;3.47;1.40;;;24.30;45.20;;;;;;4991386;28;20169;-77
2022/07/06 12:38:12;;;;;;;1.65;1.13;;;24.40;44.40;;;;;;4991640;28;20226;-77
2022/07/06 12:40:38;;;;;;;4.50;1.40;;;24.10;45.10;;;;;;4992036;28;20197;-77
2022/07/06 12:43:05;;;;;;;3.80;1.52;;;24.10;46.10;;;;;;4992398;28;20173;-77
2022/07/06 12:45:31;;;;;;;1.23;1.23;;;24.10;45.60;;;;;;4991521;28;20267;-77
2022/07/06 12:48:05;;;;;;;2.33;1.23;;;24.10;47.10;;;;;;4992216;28;20212;-77
2022/07/06 12:50:36;;;;;;;1.70;1.33;;;24.00;46.10;;;;;;4992004;28;20214;-77
2022/07/06 12:53:04;;;;;;;26.13;3.20;;;24.00;45.10;;;;;;4992899;28;20635;-77
2022/07/06 12:55:30;;;;;;;5.75;1.60;;;24.00;43.70;;;;;;4991103;28;20191;-77
2022/07/06 12:57:57;;;;;;;3.13;1.55;;;24.00;43.80;;;;;;4991894;28;20184;-77
2022/07/06 13:00:24;;;;;;;6.60;1.50;;;24.00;42.30;;;;;;4991034;28;20207;-77
2022/07/06 13:02:54;;;;;;;3.25;1.38;;;24.00;42.70;;;;;;4991481;28;20585;-77
2022/07/06 13:05:27;;;;;;;4.68;1.45;;;23.80;42.80;;;;;;4992234;28;20167;-77
2022/07/06 13:07:55;;;;;;;1.48;1.38;;;23.60;43.40;;;;;;5029498;28;20173;-77
2022/07/06 13:10:21;;;;;;;3.80;1.40;;;23.70;44.60;;;;;;5093275;28;20570;-78
2022/07/06 13:12:46;;;;;;;5.78;1.60;;;23.90;44.00;;;;;;5020298;28;20200;-77
2022/07/06 13:15:31;;;;;;;2.00;1.20;;;23.90;43.00;;;;;;4991078;28;20184;-77
2022/07/06 13:17:56;;;;;;;2.38;1.30;;;23.70;42.50;;;;;;5029231;28;20667;-77
2022/07/06 13:20:22;;;;;;;1.58;1.20;;;23.50;42.60;;;;;;5094102;28;20227;-77
2022/07/06 13:22:47;;;;;;;1.60;1.30;;;23.60;43.50;;;;;;5094427;28;20239;-77
2022/07/06 13:25:13;;;;;;;1.73;1.30;;;24.00;44.30;;;;;;5094483;28;20168;-77
2022/07/06 13:27:39;;;;;;;1.40;1.30;;;24.20;43.60;;;;;;5092321;28;20185;-77
2022/07/06 13:30:05;;;;;;;4.28;1.33;;;24.30;41.80;;;;;;5092694;28;20595;-77
2022/07/06 13:32:30;;;;;;;5.93;1.58;;;24.30;42.20;;;;;;5092225;28;20616;-77
2022/07/06 13:34:56;;;;;;;2.63;1.25;;;24.60;43.00;;;;;;5092849;28;20271;-77
2022/07/06 13:37:22;;;;;;;2.72;1.45;;;24.70;42.00;;;;;;5083889;28;20202;-77
2022/07/06 13:39:48;;;;;;;2.17;1.10;;;24.70;43.80;;;;;;4991188;28;20204;-77
2022/07/06 13:42:13;;;;;;;4.45;1.30;;;24.70;42.40;;;;;;4991780;28;20200;-77
2022/07/06 13:44:39;;;;;;;4.45;1.20;;;24.60;42.30;;;;;;5080532;28;20259;-77
2022/07/06 13:47:04;;;;;;;4.35;1.30;;;24.70;43.60;;;;;;5092402;28;20715;-77
2022/07/06 13:49:49;;;;;;;4.50;1.52;;;25.00;42.50;;;;;;5092067;28;20196;-77
2022/07/06 13:52:26;;;;;;;2.50;1.20;;;25.10;41.70;;;;;;5093440;28;20557;-77
2022/07/06 13:58:14;;;;;;;2.63;1.25;;;24.50;40.50;;;;;;5093157;28;20188;-77
2022/07/06 14:01:11;;;;;;;4.60;1.30;;;24.40;42.50;;;;;;5092214;28;20196;-77
2022/07/06 14:06:59;;;;;;;2.58;1.35;;;24.30;43.10;;;;;;4991512;28;20160;-77
2022/07/06 14:09:24;;;;;;;1.60;1.17;;;24.20;43.10;;;;;;4990474;28;20618;-77
2022/07/06 14:11:50;;;;;;;2.60;1.27;;;24.00;42.50;;;;;;4990036;28;20284;-77
2022/07/06 14:14:15;;;;;;;1.52;1.10;;;23.70;43.40;;;;;;4990873;28;20211;-77
2022/07/06 14:16:41;;;;;;;1.65;1.38;;;23.40;44.00;;;;;;4991029;28;20214;-77
2022/07/06 14:19:07;;;;;;;2.47;1.30;;;23.40;44.40;;;;;;4990956;28;20238;-77
2022/07/06 14:24:34;;;;;;;3.55;1.30;;;23.50;44.70;;;;;;5578450;22;20296;-78
2022/07/06 14:27:01;;;;;;;1.75;1.20;;;23.30;44.90;;;;;;5035047;28;20259;-78
2022/07/06 14:29:26;;;;;;;2.67;1.27;;;23.30;44.60;;;;;;5035829;28;20185;-78
2022/07/06 14:31:52;;;;;;;7.32;1.30;;;23.30;44.60;;;;;;5035347;28;20170;-78
2022/07/06 14:34:18;;;;;;;1.50;1.40;;;23.30;45.00;;;;;;5053248;28;20198;-78
2022/07/06 14:36:43;;;;;;;2.60;1.25;;;23.40;45.70;;;;;;5053381;28;20213;-78
2022/07/06 14:39:10;;;;;;;6.13;1.60;;;23.50;44.40;;;;;;5035291;28;20171;-78
2022/07/06 14:41:36;;;;;;;2.58;1.38;;;23.50;44.70;;;;;;5035246;28;20236;-78
2022/07/06 14:44:01;;;;;;;6.60;1.52;;;23.50;45.60;;;;;;5053008;28;20194;-78
2022/07/06 14:46:27;;;;;;;4.88;1.50;;;23.30;44.80;;;;;;5035313;28;20269;-78
2022/07/06 14:48:53;;;;;;;6.47;1.70;;;23.20;45.60;;;;;;5036033;28;20169;-78
2022/07/06 14:51:18;;;;;;;9.00;1.63;;;23.20;46.30;;;;;;5035518;28;20190;-78
2022/07/06 14:53:44;;;;;;;1.42;1.17;;;23.10;46.00;;;;;;5035219;28;20194;-78
2022/07/06 14:56:10;;;;;;;2.80;1.40;;;23.20;46.70;;;;;;5036120;28;20341;-78
2022/07/06 14:58:35;;;;;;;2.08;1.58;;;23.20;44.80;;;;;;5037777;28;20178;-78
2022/07/06 15:01:02;;;;;;;3.38;1.27;;;23.30;45.70;;;;;;5039057;28;20209;-78
2022/07/06 15:03:27;;;;;;;4.25;1.48;;;23.40;46.20;;;;;;5039508;28;20206;-78
2022/07/06 15:05:53;;;;;;;3.17;1.65;;;23.50;45.10;;;;;;5039103;28;20180;-78
2022/07/06 15:08:18;;;;;;;2.13;1.33;;;23.40;43.90;;;;;;5038816;28;20174;-78
2022/07/06 15:10:44;;;;;;;1.63;1.50;;;23.20;44.60;;;;;;5038747;28;20636;-78
2022/07/06 15:13:10;;;;;;;3.65;1.40;;;23.10;45.00;;;;;;5038536;28;20174;-79
2022/07/06 15:15:37;;;;;;;2.75;1.30;;;23.10;45.40;;;;;;5038784;28;20182;-79
2022/07/06 15:18:04;;;;;;;4.20;1.70;;;23.10;46.00;;;;;;5039503;28;20166;-78
2022/07/06 15:20:29;;;;;;;2.70;1.42;;;23.10;44.40;;;;;;5055984;28;20213;-78
2022/07/06 15:22:55;;;;;;;5.93;1.33;;;23.00;44.00;;;;;;5037653;28;20194;-78
2022/07/06 15:25:24;;;;;;;2.88;1.50;;;22.90;45.10;;;;;;5039207;28;20208;-78
2022/07/06 15:27:50;;;;;;;3.55;1.50;;;22.70;44.60;;;;;;5038258;28;20683;-79
2022/07/06 15:30:16;;;;;;;7.78;1.77;;;22.50;46.00;;;;;;5039036;28;20166;-79
2022/07/06 15:32:42;;;;;;;1.92;1.48;;;22.60;46.40;;;;;;5038225;28;20220;-79
2022/07/06 15:35:07;;;;;;;3.00;1.40;;;22.60;45.50;;;;;;5038137;28;20197;-79
2022/07/06 15:37:34;;;;;;;2.17;1.55;;;22.40;44.60;;;;;;5039400;28;20166;-78
2022/07/06 15:40:00;;;;;;;4.13;1.45;;;22.40;44.10;;;;;;5038876;28;20194;-78
2022/07/06 15:42:26;;;;;;;1.58;1.20;;;22.40;45.30;;;;;;5037869;28;20205;-78
2022/07/06 15:44:52;;;;;;;3.75;1.40;;;22.40;44.40;;;;;;5038121;28;20198;-78
2022/07/06 15:47:18;;;;;;;5.25;1.40;;;22.50;45.90;;;;;;5038466;28;20158;-78
2022/07/06 15:49:45;;;;;;;2.47;1.42;;;22.60;45.10;;;;;;5039111;28;20297;-78
2022/07/06 15:52:10;;;;;;;3.53;1.20;;;22.60;45.00;;;;;;5055978;28;20587;-78
2022/07/06 15:54:36;;;;;;;10.25;1.83;;;22.50;44.80;;;;;;5038047;28;20297;-78
2022/07/06 15:57:02;;;;;;;1.77;1.30;;;22.50;44.20;;;;;;5038141;28;20264;-78
2022/07/06 15:59:28;;;;;;;2.10;1.30;;;22.60;44.10;;;;;;5037872;28;20171;-78
2022/07/06 16:01:53;;;;;;;1.58;1.27;;;22.50;44.40;;;;;;5037985;28;20543;-78
2022/07/06 16:04:19;;;;;;;1.92;1.10;;;22.50;45.10;;;;;;5055757;28;20210;-78
2022/07/06 16:06:45;;;;;;;1.58;1.38;;;22.50;44.60;;;;;;5037671;28;20228;-78
2022/07/06 16:09:10;;;;;;;1.60;1.30;;;22.40;44.40;;;;;;5038231;28;20224;-78
2022/07/06 16:11:36;;;;;;;4.68;1.20;;;22.50;44.10;;;;;;5037984;28;20209;-77
2022/07/06 16:14:01;;;;;;;1.42;1.35;;;22.40;44.00;;;;;;5036455;28;20209;-78
2022/07/06 16:16:27;;;;;;;2.42;1.20;;;22.30;43.70;;;;;;5035846;28;20193;-78
2022/07/06 16:18:53;;;;;;;2.83;1.30;;;22.20;44.50;;;;;;5036722;28;20713;-78
2022/07/06 16:21:19;;;;;;;2.53;1.40;;;22.30;44.80;;;;;;5036594;28;20636;-78
2022/07/06 16:23:44;;;;;;;2.22;1.33;;;22.40;44.30;;;;;;5036340;28;20194;-78
2022/07/06 16:26:10;;;;;;;2.00;1.23;;;22.50;44.40;;;;;;5036557;28;20197;-78
2022/07/06 16:28:36;;;;;;;1.65;1.20;;;22.40;44.60;;;;;;5036368;28;20194;-78
2022/07/06 16:31:02;;;;;;;2.35;1.13;;;22.20;44.50;;;;;;5054625;28;20179;-78
2022/07/06 16:33:28;;;;;;;4.88;1.10;;;22.10;44.90;;;;;;5037767;28;20213;-78
2022/07/06 16:35:53;;;;;;;7.07;1.40;;;22.00;45.40;;;;;;5037266;28;20170;-78
2022/07/06 16:38:19;;;;;;;8.55;1.80;;;21.90;45.40;;;;;;5037300;28;20213;-78
2022/07/06 16:40:45;;;;;;;4.13;1.48;;;21.80;45.60;;;;;;5036870;28;20166;-78
2022/07/06 16:43:14;;;;;;;2.50;1.30;;;21.80;47.60;;;;;;5036926;28;20194;-78
2022/07/06 16:45:39;;;;;;;4.38;1.40;;;21.80;45.90;;;;;;5054937;28;20174;-78
2022/07/06 16:48:06;;;;;;;2.55;1.33;;;21.70;46.10;;;;;;5054866;28;20261;-78
2022/07/06 16:50:31;;;;;;;3.80;1.25;;;21.70;46.20;;;;;;5036789;28;20189;-78
2022/07/06 16:52:58;;;;;;;11.25;1.73;;;21.70;46.20;;;;;;5036963;28;20645;-79
2022/07/06 16:55:25;;;;;;;18.20;1.70;;;21.60;46.10;;;;;;5037116;28;20597;-78
2022/07/06 16:57:50;;;;;;;7.35;1.60;;;21.50;46.40;;;;;;5036642;28;20174;-78
2022/07/06 17:00:16;;;;;;;6.88;2.03;;;21.50;47.60;;;;;;5036516;28;20174;-78
2022/07/06 17:02:41;;;;;;;5.70;1.60;;;21.40;48.70;;;;;;5036805;28;20243;-78
2022/07/06 17:05:08;;;;;;;2.22;1.52;;;21.50;48.50;;;;;;5036579;28;20255;-84
2022/07/06 17:07:33;;;;;;;5.13;1.13;;;21.50;48.20;;;;;;5036425;28;20170;-77
2022/07/06 17:10:01;;;;;;;3.85;1.30;;;21.50;47.60;;;;;;5037201;28;20674;-78
2022/07/06 17:12:28;;;;;;;3.58;1.38;;;21.40;48.50;;;;;;5036292;28;20183;-79
2022/07/06 17:14:54;;;;;;;9.75;1.65;;;21.40;48.40;;;;;;5036156;28;20206;-78
2022/07/06 17:20:42;;;;;;;4.38;1.63;;;21.30;48.20;;;;;;5053884;28;20192;-77
2022/07/06 17:23:07;;;;;;;4.72;1.60;;;21.30;49.40;;;;;;5036376;28;20304;-77
2022/07/06 17:25:33;;;;;;;4.03;1.45;;;21.30;50.70;;;;;;5036223;28;20170;-80
2022/07/06 17:27:59;;;;;;;1.40;1.20;;;21.20;49.20;;;;;;5054586;28;20541;-78
2022/07/06 17:30:35;;;;;;;10.85;1.75;;;21.20;49.20;;;;;;5036850;28;20174;-79
2022/07/06 17:33:05;;;;;;;6.15;2.03;;;21.00;49.10;;;;;;5035937;28;20261;-77
2022/07/06 17:35:32;;;;;;;5.95;1.55;;;21.00;49.30;;;;;;5036853;28;20543;-77
2022/07/06 17:37:58;;;;;;;13.52;2.60;;;21.00;49.30;;;;;;5035820;28;20644;-77
2022/07/06 17:41:07;;;;;;;10.68;1.92;;;21.00;49.40;;;;;;5036281;28;20189;-78
2022/07/06 17:43:33;;;;;;;9.88;2.05;;;21.00;49.70;;;;;;5035737;28;20205;-78
2022/07/06 17:45:59;;;;;;;4.50;1.33;;;21.00;50.30;;;;;;5036030;28;20184;-78
2022/07/06 17:48:24;;;;;;;4.63;1.30;;;21.00;50.40;;;;;;5053922;28;20188;-77
2022/07/06 17:50:50;;;;;;;4.43;1.35;;;21.00;50.60;;;;;;5035736;28;20275;-80
2022/07/06 17:53:15;;;;;;;8.40;1.85;;;21.00;50.10;;;;;;5036597;28;20185;-77
2022/07/06 17:55:41;;;;;;;4.28;1.33;;;21.00;50.20;;;;;;5053451;28;20629;-78
2022/07/06 17:58:06;;;;;;;1.92;1.13;;;21.00;49.50;;;;;;5036012;28;20174;-78
2022/07/06 18:00:33;;;;;;;1.50;1.00;;;20.80;48.60;;;;;;5053675;28;20178;-77
2022/07/06 18:03:01;;;;;;;3.17;1.15;;;20.70;49.10;;;;;;5035782;28;20247;-78
2022/07/06 18:05:28;;;;;;;3.85;1.10;;;20.60;49.10;;;;;;5035734;28;20210;-77
2022/07/06 18:07:55;;;;;;;4.28;1.17;;;20.40;49.40;;;;;;5053485;28;20190;-77
2022/07/06 18:10:21;;;;;;;4.40;1.10;;;20.30;49.60;;;;;;5035470;28;20181;-77
2022/07/06 18:12:46;;;;;;;2.10;1.25;;;20.30;50.30;;;;;;5035773;28;20174;-77
2022/07/06 18:15:12;;;;;;;1.42;0.98;;;20.10;50.50;;;;;;5053234;28;20196;-78
2022/07/06 18:17:43;;;;;;;2.53;1.20;;;20.00;50.50;;;;;;5035430;28;20178;-77
2022/07/06 18:20:09;;;;;;;1.80;1.10;;;19.90;50.80;;;;;;5036377;28;20174;-77
2022/07/06 18:22:35;;;;;;;4.72;1.10;;;19.70;50.90;;;;;;5035365;28;20229;-77
2022/07/06 18:25:01;;;;;;;2.42;1.20;;;19.60;51.10;;;;;;5035639;28;20189;-77
2022/07/06 18:27:26;;;;;;;1.75;1.10;;;19.50;51.30;;;;;;5035564;28;20194;-77
2022/07/06 18:29:52;;;;;;;2.05;1.30;;;19.40;51.40;;;;;;5035434;28;20261;-79
2022/07/06 18:32:18;;;;;;;5.13;1.20;;;19.30;52.40;;;;;;5036365;28;20579;-77
2022/07/06 18:34:43;;;;;;;1.92;1.08;;;19.20;52.60;;;;;;5039281;28;20202;-77
2022/07/06 18:37:09;;;;;;;3.60;1.23;;;19.00;52.70;;;;;;5040131;28;20511;-82
2022/07/06 18:39:34;;;;;;;2.00;1.00;;;18.90;53.30;;;;;;5057263;28;20174;-78
2022/07/06 18:42:01;;;;;;;1.25;1.10;;;18.80;53.40;;;;;;5039125;28;20201;-77
2022/07/06 18:44:26;;;;;;;3.67;1.30;;;18.80;53.70;;;;;;5039294;28;20614;-78
2022/07/06 18:46:52;;;;;;;1.55;1.13;;;18.70;53.90;;;;;;5039977;28;20170;-77
2022/07/06 18:49:18;;;;;;;4.03;1.00;;;18.60;54.40;;;;;;5040177;28;20182;-77
2022/07/06 18:51:51;;;;;;;1.67;1.23;;;18.60;54.80;;;;;;5039093;28;20181;-77
2022/07/06 18:54:17;;;;;;;3.60;1.20;;;18.50;55.30;;;;;;5039461;28;20198;-77
2022/07/06 18:56:43;;;;;;;3.15;1.23;;;18.40;55.50;;;;;;5039765;28;20185;-77
2022/07/06 18:59:08;;;;;;;2.95;1.20;;;18.30;55.50;;;;;;5057239;28;20178;-77
2022/07/06 19:01:34;;;;;;;3.60;1.13;;;18.30;55.50;;;;;;5039147;28;20198;-77
2022/07/06 19:03:59;;;;;;;4.65;1.17;;;18.20;55.60;;;;;;5039068;28;20189;-77
2022/07/06 19:06:25;;;;;;;1.38;1.00;;;18.20;55.80;;;;;;5039128;28;20196;-77
2022/07/06 19:08:52;;;;;;;1.20;1.02;;;18.10;56.00;;;;;;5056743;28;20190;-77
2022/07/06 19:11:17;;;;;;;1.40;1.13;;;18.00;56.70;;;;;;5038729;28;20228;-77
2022/07/06 19:13:43;;;;;;;1.63;1.20;;;18.00;57.00;;;;;;5039644;28;20206;-77
2022/07/06 19:19:31;;;;;;;3.60;1.33;;;17.60;58.80;;;;;;5056602;28;20169;-77
2022/07/06 19:21:57;;;;;;;3.22;1.13;;;17.50;59.10;;;;;;5038647;28;20202;-77
2022/07/06 19:24:22;;;;;;;2.75;1.08;;;17.40;59.70;;;;;;5038407;28;20198;-77
2022/07/06 19:26:48;;;;;;;3.90;1.20;;;17.30;60.20;;;;;;5038329;28;20233;-77
2022/07/06 19:29:14;;;;;;;2.17;1.20;;;17.30;61.30;;;;;;5038300;28;20185;-77
2022/07/06 19:31:40;;;;;;;1.63;1.20;;;17.20;61.30;;;;;;5038866;28;20181;-77
2022/07/06 19:34:06;;;;;;;1.73;1.10;;;17.00;61.70;;;;;;5038236;28;20190;-77
2022/07/06 19:36:31;;;;;;;1.98;1.20;;;16.90;62.20;;;;;;5039087;28;20185;-77
2022/07/06 19:38:57;;;;;;;7.82;1.20;;;16.80;62.90;;;;;;5056035;28;20545;-77
2022/07/06 19:41:22;;;;;;;2.35;1.05;;;16.80;63.30;;;;;;5037983;28;20256;-77
2022/07/06 19:43:49;;;;;;;2.65;1.10;;;16.60;63.50;;;;;;5055659;28;20197;-77
2022/07/06 19:46:15;;;;;;;1.80;1.20;;;16.40;64.00;;;;;;5039156;28;20188;-77
2022/07/06 19:48:41;;;;;;;1.65;1.17;;;16.30;64.40;;;;;;5055799;28;20253;-77
2022/07/06 19:51:36;;;;;;;5.38;1.20;;;16.20;64.60;;;;;;5055739;28;20184;-77
2022/07/06 19:54:01;;;;;;;1.65;1.27;;;16.10;64.80;;;;;;5037850;28;20202;-77
2022/07/06 19:56:27;;;;;;;2.33;1.27;;;16.10;64.90;;;;;;5038073;28;20289;-77
2022/07/06 19:58:52;;;;;;;1.35;1.17;;;16.00;65.80;;;;;;5056127;28;20220;-77
2022/07/06 20:01:57;;;;;;;3.78;1.30;;;16.00;66.40;;;;;;5038596;28;20209;-77
2022/07/06 20:09:00;;;;;;;1.65;1.00;;;15.80;67.10;;;;;;5055926;28;20174;-77
2022/07/06 20:12:22;;;;;;;6.15;1.35;;;15.70;67.90;;;;;;5037625;28;20182;-77
2022/07/06 20:14:49;;;;;;;5.63;1.30;;;15.60;68.30;;;;;;5037408;28;20206;-77
2022/07/06 20:17:15;;;;;;;2.85;1.10;;;15.50;68.30;;;;;;5037405;28;20178;-77
2022/07/06 20:19:40;;;;;;;2.83;1.10;;;15.50;68.50;;;;;;5038170;28;20208;-77
2022/07/06 20:22:06;;;;;;;5.32;1.17;;;15.50;68.40;;;;;;5055161;28;20288;-77
2022/07/06 20:24:35;;;;;;;2.47;1.00;;;15.40;68.90;;;;;;5037149;28;20217;-77
2022/07/06 20:27:00;;;;;;;5.50;1.52;;;15.30;69.40;;;;;;5037655;28;20237;-77
2022/07/06 20:29:26;;;;;;;1.73;1.17;;;15.30;69.80;;;;;;5037122;28;20650;-77
2022/07/06 20:31:53;;;;;;;4.05;1.15;;;15.20;69.70;;;;;;5055153;28;20174;-77
2022/07/06 20:34:19;;;;;;;1.40;1.30;;;15.20;70.20;;;;;;5037038;28;20201;-77
2022/07/06 20:37:06;;;;;;;4.13;1.30;;;15.20;69.90;;;;;;5037076;28;20263;-77
2022/07/06 20:42:54;;;;;;;3.70;1.30;;;15.20;69.80;;;;;;5054809;28;20197;-77
2022/07/06 20:45:37;;;;;;;3.40;1.35;;;15.10;70.10;;;;;;5036881;28;20194;-77
2022/07/06 20:48:03;;;;;;;2.70;1.27;;;14.90;70.70;;;;;;5037421;28;20193;-77
2022/07/06 20:50:44;;;;;;;2.60;1.08;;;14.90;70.90;;;;;;5037581;28;20174;-77
2022/07/06 20:53:10;;;;;;;9.82;1.25;;;14.80;71.30;;;;;;5037266;28;20178;-77
2022/07/06 20:55:37;;;;;;;2.75;1.30;;;14.70;71.30;;;;;;5035794;28;20182;-77
2022/07/06 20:58:04;;;;;;;3.95;1.23;;;14.80;71.50;;;;;;5036629;28;20186;-76
2022/07/06 21:00:31;;;;;;;2.47;1.15;;;14.70;71.70;;;;;;5036936;28;20178;-76
2022/07/06 21:02:56;;;;;;;2.78;1.27;;;14.50;72.30;;;;;;5054346;28;20198;-76
2022/07/06 21:05:22;;;;;;;5.95;1.52;;;14.40;73.70;;;;;;5036660;28;20196;-76
2022/07/06 21:07:48;;;;;;;5.40;1.40;;;14.30;73.00;;;;;;5037368;28;20263;-76
2022/07/06 21:10:13;;;;;;;2.22;1.27;;;14.40;73.10;;;;;;5036526;28;20201;-76
2022/07/06 21:12:39;;;;;;;1.52;1.10;;;14.40;73.20;;;;;;5054445;28;20616;-76
2022/07/06 21:15:05;;;;;;;1.77;1.30;;;14.30;73.20;;;;;;5036217;28;20194;-76
2022/07/06 21:17:31;;;;;;;1.42;1.15;;;14.10;73.90;;;;;;5036608;28;20609;-76
2022/07/06 21:19:57;;;;;;;1.85;1.20;;;14.20;73.90;;;;;;5036254;28;20178;-77
2022/07/06 21:22:22;;;;;;;1.98;1.10;;;14.30;73.60;;;;;;5036438;28;20210;-77
2022/07/06 21:24:48;;;;;;;4.97;1.30;;;14.30;73.60;;;;;;5036139;28;20236;-77
2022/07/06 21:27:14;;;;;;;3.05;1.25;;;14.40;74.20;;;;;;5036199;28;20217;-77
2022/07/06 21:29:39;;;;;;;5.82;1.10;;;14.30;74.80;;;;;;5036259;28;20174;-77
2022/07/06 21:32:05;;;;;;;6.13;1.10;;;14.30;74.70;;;;;;5036343;28;20521;-77
2022/07/06 21:34:31;;;;;;;2.70;1.27;;;14.30;74.80;;;;;;5036113;28;20285;-77
2022/07/06 21:36:57;;;;;;;1.20;1.10;;;14.20;75.20;;;;;;5035922;28;20182;-76
2022/07/06 21:39:22;;;;;;;2.30;1.20;;;14.20;75.20;;;;;;5054052;28;20162;-76
2022/07/06 21:41:49;;;;;;;1.98;1.23;;;14.20;75.60;;;;;;5053898;28;20210;-76
2022/07/06 21:44:15;;;;;;;2.38;1.10;;;14.20;76.00;;;;;;5036464;28;20194;-77
2022/07/06 21:46:40;;;;;;;2.50;1.00;;;14.00;77.40;;;;;;5036598;28;20609;-77
2022/07/06 21:49:06;;;;;;;5.40;1.38;;;13.80;78.40;;;;;;5035826;28;20263;-76
2022/07/06 21:51:31;;;;;;;6.70;1.23;;;13.90;78.80;;;;;;5035786;28;20181;-76
2022/07/06 21:53:57;;;;;;;6.35;1.70;;;14.00;78.80;;;;;;5054296;28;20197;-77
2022/07/06 21:56:23;;;;;;;14.32;1.77;;;14.00;79.20;;;;;;5035951;28;20590;-77
2022/07/06 21:58:48;;;;;;;7.32;1.85;;;14.20;79.30;;;;;;5035726;28;20197;-77
2022/07/06 22:01:14;;;;;;;8.68;3.25;;;14.10;79.10;;;;;;5035836;28;20240;-77
2022/07/06 22:03:39;;;;;;;13.30;4.90;;;14.20;78.60;;;;;;5035636;28;20202;-77
2022/07/06 22:06:06;;;;;;;25.95;13.65;;;14.20;79.00;;;;;;5036158;28;20178;-77
2022/07/06 22:08:31;;;;;;;33.72;20.10;;;14.20;78.30;;;;;;5035613;28;20734;-77
2022/07/06 22:10:57;;;;;;;26.85;11.15;;;14.20;78.10;;;;;;5035631;28;20269;-77
2022/07/06 22:13:41;;;;;;;21.67;6.22;;;14.30;78.70;;;;;;5053459;28;20201;-77
2022/07/06 22:16:12;;;;;;;11.35;2.65;;;14.40;78.90;;;;;;5036273;28;20181;-77
2022/07/06 22:18:48;;;;;;;10.85;2.80;;;14.30;79.10;;;;;;5053195;28;20155;-77
2022/07/06 22:21:14;;;;;;;11.93;2.75;;;14.20;79.80;;;;;;5053763;28;20181;-77
2022/07/06 22:23:41;;;;;;;6.35;2.25;;;14.20;80.00;;;;;;5053374;28;20190;-77
2022/07/06 22:26:13;;;;;;;5.22;2.10;;;14.30;80.30;;;;;;5034028;28;20660;-77
2022/07/06 22:28:43;;;;;;;10.55;2.10;;;14.30;80.00;;;;;;5034831;28;20273;-77
2022/07/06 22:31:09;;;;;;;9.48;2.03;;;14.40;80.40;;;;;;5035531;28;20174;-77
2022/07/06 22:33:35;;;;;;;8.00;1.70;;;14.30;80.30;;;;;;5036082;28;20194;-77
2022/07/06 22:36:02;;;;;;;14.23;1.70;;;14.40;80.30;;;;;;5035574;28;20180;-77
2022/07/06 22:38:28;;;;;;;7.25;1.70;;;14.50;80.40;;;;;;5035682;28;20174;-77
2022/07/06 22:41:02;;;;;;;6.65;1.50;;;14.50;81.40;;;;;;5035266;28;20197;-77
2022/07/06 22:43:33;;;;;;;6.13;1.63;;;14.50;80.20;;;;;;5035920;28;20197;-77
2022/07/06 22:45:59;;;;;;;4.22;1.58;;;14.60;79.60;;;;;;5035301;28;20166;-77
2022/07/06 22:48:25;;;;;;;6.78;1.70;;;14.50;79.90;;;;;;5035126;28;20185;-77
2022/07/06 22:50:51;;;;;;;7.60;1.65;;;14.60;80.40;;;;;;5035364;28;20178;-77
2022/07/06 22:53:17;;;;;;;3.63;1.75;;;14.60;80.70;;;;;;5035377;28;20220;-77
2022/07/06 22:55:42;;;;;;;11.10;1.80;;;14.70;80.50;;;;;;5035156;28;20316;-77
2022/07/06 22:58:08;;;;;;;5.25;1.63;;;14.80;81.00;;;;;;5035149;28;20188;-77
2022/07/06 23:00:34;;;;;;;5.03;1.75;;;14.90;81.50;;;;;;5035390;28;20185;-77
2022/07/06 23:02:59;;;;;;;5.07;1.65;;;14.90;81.80;;;;;;5052979;28;20209;-77
2022/07/06 23:05:25;;;;;;;4.38;1.70;;;14.90;81.60;;;;;;5052931;28;20190;-77
2022/07/06 23:07:51;;;;;;;9.45;1.88;;;14.90;81.30;;;;;;5052823;28;20175;-77
2022/07/06 23:10:17;;;;;;;1.77;1.30;;;15.00;81.10;;;;;;5035832;28;20200;-77
2022/07/06 23:12:44;;;;;;;1.88;1.33;;;14.90;79.50;;;;;;5052763;28;20178;-77
2022/07/06 23:15:10;;;;;;;2.22;1.13;;;15.00;79.40;;;;;;5035350;28;20194;-77
2022/07/06 23:17:35;;;;;;;2.17;1.08;;;15.10;79.10;;;;;;5053043;28;20216;-77
2022/07/06 23:20:01;;;;;;;1.85;1.10;;;15.20;78.60;;;;;;5055066;28;20174;-77
2022/07/06 23:22:27;;;;;;;2.22;1.13;;;15.20;78.60;;;;;;5039238;28;20675;-77
2022/07/06 23:24:52;;;;;;;1.65;1.30;;;15.10;79.30;;;;;;5038684;28;20259;-77
2022/07/06 23:27:18;;;;;;;3.53;1.52;;;15.10;80.30;;;;;;5056335;28;20663;-77
2022/07/06 23:29:44;;;;;;;6.25;1.40;;;15.20;81.20;;;;;;5038307;28;20227;-77
2022/07/06 23:32:10;;;;;;;2.60;1.15;;;15.00;82.10;;;;;;5038249;28;20206;-77